createdAt,value
2019-03-05T00:00:49.338Z,8.08
2019-03-05T00:01:49.388Z,8.01
2019-03-05T00:03:42.369Z,8.10
2019-03-05T00:04:42.417Z,8.08
2019-03-05T00:06:35.418Z,8.10
2019-03-05T00:07:35.453Z,8.08
2019-03-05T00:09:28.434Z,8.16
2019-03-05T00:10:28.481Z,8.18
2019-03-05T00:12:21.466Z,8.08
2019-03-05T00:13:21.514Z,8.19
2019-03-05T00:15:14.494Z,8.12
2019-03-05T00:16:14.549Z,8.24
2019-03-05T00:18:07.534Z,8.13
2019-03-05T00:19:07.584Z,8.15
2019-03-05T00:21:00.557Z,8.16
2019-03-05T00:22:00.670Z,8.18
2019-03-05T00:23:53.596Z,8.24
2019-03-05T00:24:53.652Z,8.18
2019-03-05T00:26:46.623Z,8.23
2019-03-05T00:27:46.688Z,8.18
2019-03-05T00:29:39.677Z,8.16
2019-03-05T00:30:39.724Z,8.10
2019-03-05T00:32:32.710Z,8.13
2019-03-05T00:33:33.016Z,8.15
2019-03-05T00:35:25.736Z,8.15
2019-03-05T00:36:25.794Z,8.10
2019-03-05T00:38:18.766Z,8.03
2019-03-05T00:39:18.823Z,8.08
2019-03-05T00:41:11.796Z,8.06
2019-03-05T00:42:11.850Z,7.97
2019-03-05T00:44:04.835Z,8.00
2019-03-05T00:45:04.883Z,8.01
2019-03-05T00:46:57.858Z,8.01
2019-03-05T00:47:57.913Z,8.00
2019-03-05T00:49:50.900Z,8.01
2019-03-05T00:50:50.945Z,7.98
2019-03-05T00:52:43.936Z,8.01
2019-03-05T00:53:43.982Z,8.05
2019-03-05T00:55:36.982Z,8.05
2019-03-05T00:56:37.012Z,7.90
2019-03-05T00:58:29.992Z,7.88
2019-03-05T00:59:30.042Z,7.94
2019-03-05T01:01:23.530Z,7.88
2019-03-05T01:02:23.588Z,7.94
2019-03-05T01:04:16.563Z,7.83
2019-03-05T01:05:16.621Z,7.76
2019-03-05T01:07:09.600Z,7.93
2019-03-05T01:08:09.652Z,7.98
2019-03-05T01:10:02.637Z,7.87
2019-03-05T01:11:02.682Z,7.91
2019-03-05T01:12:55.666Z,7.87
2019-03-05T01:13:55.716Z,7.97
2019-03-05T01:15:48.706Z,7.97
2019-03-05T01:16:48.752Z,7.97
2019-03-05T01:18:41.739Z,7.83
2019-03-05T01:19:41.788Z,7.95
2019-03-05T01:21:34.772Z,7.93
2019-03-05T01:22:34.824Z,8.00
2019-03-05T01:24:27.808Z,7.97
2019-03-05T01:25:27.858Z,8.05
2019-03-05T01:27:20.834Z,8.00
2019-03-05T01:28:20.889Z,8.00
2019-03-05T01:30:13.867Z,8.03
2019-03-05T01:31:13.916Z,8.09
2019-03-05T01:33:06.904Z,8.10
2019-03-05T01:34:06.950Z,8.05
2019-03-05T01:35:59.928Z,7.95
2019-03-05T01:36:59.983Z,8.03
2019-03-05T01:38:52.981Z,7.98
2019-03-05T01:39:53.030Z,7.98
2019-03-05T01:41:46.005Z,8.01
2019-03-05T01:42:46.063Z,8.00
2019-03-05T01:44:39.045Z,8.05
2019-03-05T01:45:39.092Z,7.94
2019-03-05T01:47:32.093Z,7.93
2019-03-05T01:48:32.125Z,7.97
2019-03-05T01:50:25.111Z,7.87
2019-03-05T01:51:25.153Z,7.87
2019-03-05T01:53:18.149Z,7.97
2019-03-05T01:54:18.225Z,7.85
2019-03-05T01:56:11.171Z,7.79
2019-03-05T01:57:11.228Z,7.82
2019-03-05T01:59:04.219Z,7.77
2019-03-05T02:00:04.258Z,7.83
2019-03-05T02:01:57.236Z,7.87
2019-03-05T02:02:57.288Z,7.83
2019-03-05T02:04:50.280Z,7.83
2019-03-05T02:05:50.394Z,7.83
2019-03-05T02:07:43.298Z,7.83
2019-03-05T02:08:43.358Z,7.97
2019-03-05T02:10:36.338Z,7.83
2019-03-05T02:11:36.387Z,7.87
2019-03-05T02:13:29.370Z,7.95
2019-03-05T02:14:29.418Z,8.03
2019-03-05T02:16:22.394Z,7.98
2019-03-05T02:17:22.451Z,8.06
2019-03-05T02:19:15.430Z,8.01
2019-03-05T02:20:15.492Z,7.95
2019-03-05T02:22:08.466Z,7.94
2019-03-05T02:23:08.519Z,8.05
2019-03-05T02:25:01.496Z,8.05
2019-03-05T02:26:01.548Z,8.01
2019-03-05T02:27:54.520Z,8.05
2019-03-05T02:28:54.579Z,8.00
2019-03-05T02:30:47.565Z,7.98
2019-03-05T02:31:47.627Z,7.97
2019-03-05T02:33:40.603Z,8.03
2019-03-05T02:34:40.651Z,8.00
2019-03-05T02:36:33.625Z,8.00
2019-03-05T02:37:33.681Z,8.08
2019-03-05T02:39:26.662Z,8.01
2019-03-05T02:40:26.712Z,8.03
2019-03-05T02:42:19.692Z,8.01
2019-03-05T02:43:19.742Z,8.00
2019-03-05T02:45:12.726Z,7.91
2019-03-05T02:46:12.778Z,7.88
2019-03-05T02:48:05.747Z,7.93
2019-03-05T02:49:05.810Z,7.95
2019-03-05T02:50:58.786Z,7.85
2019-03-05T02:51:58.882Z,7.83
2019-03-05T02:53:51.818Z,7.82
2019-03-05T02:54:51.867Z,7.63
2019-03-05T02:56:44.842Z,7.58
2019-03-05T02:57:45.148Z,7.53
2019-03-05T02:59:37.996Z,7.42
2019-03-05T03:00:37.948Z,7.35
2019-03-05T03:02:30.928Z,7.39
2019-03-05T03:03:30.991Z,7.28
2019-03-05T03:05:24.001Z,7.06
2019-03-05T03:06:24.019Z,7.14
2019-03-05T03:08:17.019Z,6.97
2019-03-05T03:09:17.053Z,6.97
2019-03-05T03:11:10.034Z,6.95
2019-03-05T03:12:10.078Z,6.89
2019-03-05T03:14:03.064Z,6.88
2019-03-05T03:15:03.119Z,6.78
2019-03-05T03:16:56.090Z,6.78
2019-03-05T03:17:56.445Z,6.78
2019-03-05T03:19:49.125Z,6.70
2019-03-05T03:20:49.174Z,6.57
2019-03-05T03:22:42.151Z,6.74
2019-03-05T03:23:42.205Z,6.75
2019-03-05T03:25:35.191Z,6.64
2019-03-05T03:26:35.236Z,6.63
2019-03-05T03:28:28.220Z,6.56
2019-03-05T03:29:28.269Z,6.51
2019-03-05T03:31:21.268Z,6.57
2019-03-05T03:32:21.315Z,6.57
2019-03-05T03:34:14.302Z,6.56
2019-03-05T03:35:14.483Z,6.54
2019-03-05T03:37:07.325Z,6.52
2019-03-05T03:38:07.381Z,6.41
2019-03-05T03:40:00.447Z,6.38
2019-03-05T03:41:00.414Z,6.35
2019-03-05T03:42:53.386Z,6.33
2019-03-05T03:43:53.443Z,6.36
2019-03-05T03:45:46.430Z,6.31
2019-03-05T03:46:46.476Z,6.24
2019-03-05T03:48:39.447Z,6.31
2019-03-05T03:49:39.501Z,6.28
2019-03-05T03:51:32.485Z,6.36
2019-03-05T03:52:32.540Z,6.46
2019-03-05T03:54:25.512Z,6.56
2019-03-05T03:55:25.561Z,6.51
2019-03-05T03:57:18.565Z,6.48
2019-03-05T03:58:18.594Z,6.59
2019-03-05T04:00:11.583Z,6.54
2019-03-05T04:01:11.658Z,6.41
2019-03-05T04:03:04.619Z,6.45
2019-03-05T04:04:04.673Z,6.62
2019-03-05T04:05:57.653Z,6.66
2019-03-05T04:06:57.703Z,6.64
2019-03-05T04:08:50.688Z,6.72
2019-03-05T04:09:50.743Z,6.67
2019-03-05T04:11:43.724Z,6.67
2019-03-05T04:12:43.784Z,6.63
2019-03-05T04:14:36.763Z,6.54
2019-03-05T04:15:36.828Z,6.57
2019-03-05T04:17:29.787Z,6.56
2019-03-05T04:18:29.842Z,6.52
2019-03-05T04:20:22.825Z,6.59
2019-03-05T04:21:22.873Z,6.60
2019-03-05T04:23:15.850Z,6.64
2019-03-05T04:24:15.907Z,6.69
2019-03-05T04:26:08.897Z,6.74
2019-03-05T04:27:08.936Z,6.72
2019-03-05T04:29:01.937Z,6.74
2019-03-05T04:30:01.977Z,6.72
2019-03-05T04:31:54.955Z,6.70
2019-03-05T04:32:54.995Z,6.70
2019-03-05T04:34:47.981Z,6.75
2019-03-05T04:35:48.024Z,6.69
2019-03-05T04:37:40.998Z,6.79
2019-03-05T04:38:41.055Z,6.69
2019-03-05T04:40:34.039Z,6.75
2019-03-05T04:41:34.091Z,6.79
2019-03-05T04:43:27.061Z,6.79
2019-03-05T04:44:27.116Z,6.75
2019-03-05T04:46:20.098Z,6.72
2019-03-05T04:47:20.145Z,6.74
2019-03-05T04:49:13.126Z,6.72
2019-03-05T04:50:13.176Z,6.69
2019-03-05T04:52:06.161Z,6.75
2019-03-05T04:53:06.211Z,6.75
2019-03-05T04:54:59.198Z,6.77
2019-03-05T04:55:59.250Z,6.82
2019-03-05T04:57:52.223Z,6.85
2019-03-05T04:58:52.280Z,6.88
2019-03-05T05:00:45.249Z,6.79
2019-03-05T05:01:45.308Z,6.78
2019-03-05T05:03:38.283Z,6.87
2019-03-05T05:04:38.340Z,6.85
2019-03-05T05:06:31.324Z,6.92
2019-03-05T05:07:31.374Z,6.88
2019-03-05T05:09:24.356Z,6.97
2019-03-05T05:10:24.417Z,6.85
2019-03-05T05:12:17.392Z,6.88
2019-03-05T05:13:17.438Z,6.87
2019-03-05T05:15:10.417Z,6.87
2019-03-05T05:16:10.469Z,6.84
2019-03-05T05:18:03.444Z,6.88
2019-03-05T05:19:03.501Z,6.89
2019-03-05T05:20:56.482Z,6.82
2019-03-05T05:21:56.535Z,6.81
2019-03-05T05:23:49.504Z,6.88
2019-03-05T05:24:49.561Z,6.82
2019-03-05T05:26:42.544Z,6.78
2019-03-05T05:27:42.587Z,6.81
2019-03-05T05:29:35.572Z,6.85
2019-03-05T05:30:35.628Z,6.87
2019-03-05T05:32:28.611Z,6.84
2019-03-05T05:33:28.660Z,6.87
2019-03-05T05:35:21.646Z,6.84
2019-03-05T05:36:21.685Z,6.79
2019-03-05T05:38:14.663Z,6.89
2019-03-05T05:39:14.719Z,6.93
2019-03-05T05:41:07.724Z,6.87
2019-03-05T05:42:07.772Z,6.89
2019-03-05T05:44:00.745Z,6.85
2019-03-05T05:45:00.801Z,6.99
2019-03-05T05:46:53.789Z,6.89
2019-03-05T05:47:53.832Z,6.96
2019-03-05T05:49:46.824Z,6.95
2019-03-05T05:50:46.868Z,6.99
2019-03-05T05:52:39.849Z,7.00
2019-03-05T05:53:39.893Z,6.97
2019-03-05T05:55:32.887Z,7.02
2019-03-05T05:56:32.934Z,6.99
2019-03-05T05:58:25.911Z,6.99
2019-03-05T05:59:25.962Z,6.93
2019-03-05T06:01:19.456Z,6.97
2019-03-05T06:02:19.505Z,6.95
2019-03-05T06:04:12.483Z,6.93
2019-03-05T06:05:12.538Z,6.88
2019-03-05T06:07:05.519Z,6.88
2019-03-05T06:08:05.571Z,6.78
2019-03-05T06:09:58.544Z,6.79
2019-03-05T06:10:58.607Z,6.79
2019-03-05T06:12:51.598Z,6.78
2019-03-05T06:13:51.644Z,6.70
2019-03-05T06:15:44.623Z,6.75
2019-03-05T06:16:44.673Z,6.66
2019-03-05T06:18:37.650Z,6.79
2019-03-05T06:19:37.706Z,6.85
2019-03-05T06:21:30.686Z,6.74
2019-03-05T06:22:30.739Z,6.79
2019-03-05T06:24:23.706Z,6.78
2019-03-05T06:25:23.764Z,6.81
2019-03-05T06:27:16.743Z,6.74
2019-03-05T06:28:16.790Z,6.81
2019-03-05T06:30:09.771Z,6.78
2019-03-05T06:31:09.827Z,6.82
2019-03-05T06:33:02.815Z,6.88
2019-03-05T06:34:02.864Z,6.89
2019-03-05T06:35:55.842Z,6.88
2019-03-05T06:36:55.921Z,6.95
2019-03-05T06:38:48.863Z,7.00
2019-03-05T06:39:48.916Z,6.96
2019-03-05T06:41:41.903Z,7.06
2019-03-05T06:42:41.949Z,7.06
2019-03-05T06:44:34.927Z,7.02
2019-03-05T06:45:34.981Z,7.03
2019-03-05T06:47:27.959Z,7.00
2019-03-05T06:48:28.005Z,7.06
2019-03-05T06:50:20.999Z,7.06
2019-03-05T06:51:21.043Z,7.05
2019-03-05T06:53:14.029Z,6.93
2019-03-05T06:54:14.081Z,6.85
2019-03-05T06:56:07.121Z,6.88
2019-03-05T06:57:07.111Z,6.74
2019-03-05T06:59:00.105Z,6.78
2019-03-05T07:00:00.363Z,6.78
2019-03-05T07:01:53.633Z,6.82
2019-03-05T07:02:53.676Z,6.82
2019-03-05T07:04:47.158Z,6.85
2019-03-05T07:05:47.213Z,6.89
2019-03-05T07:07:40.187Z,6.85
2019-03-05T07:08:40.239Z,6.84
2019-03-05T07:10:33.219Z,6.93
2019-03-05T07:11:33.271Z,6.95
2019-03-05T07:13:26.257Z,7.18
2019-03-05T07:14:26.299Z,7.05
2019-03-05T07:16:19.290Z,7.05
2019-03-05T07:17:19.342Z,7.05
2019-03-05T07:19:12.318Z,7.02
2019-03-05T07:20:12.372Z,6.97
2019-03-05T07:22:05.359Z,7.13
2019-03-05T07:23:05.404Z,7.11
2019-03-05T07:24:58.383Z,7.13
2019-03-05T07:25:58.436Z,7.25
2019-03-05T07:27:51.434Z,7.25
2019-03-05T07:28:51.486Z,7.29
2019-03-05T07:30:44.447Z,7.24
2019-03-05T07:31:44.499Z,7.24
2019-03-05T07:33:37.484Z,7.25
2019-03-05T07:34:37.535Z,7.25
2019-03-05T07:36:30.520Z,7.42
2019-03-05T07:37:30.571Z,7.38
2019-03-05T07:39:23.548Z,7.50
2019-03-05T07:40:23.599Z,7.57
2019-03-05T07:42:16.581Z,7.53
2019-03-05T07:43:16.630Z,7.50
2019-03-05T07:45:09.608Z,7.43
2019-03-05T07:46:09.661Z,7.54
2019-03-05T07:48:02.652Z,7.45
2019-03-05T07:49:02.702Z,7.48
2019-03-05T07:50:55.679Z,7.48
2019-03-05T07:51:55.734Z,7.40
2019-03-05T07:53:48.715Z,7.67
2019-03-05T07:54:48.763Z,7.93
2019-03-05T07:56:41.750Z,8.74
2019-03-05T07:57:41.794Z,8.44
2019-03-05T07:59:34.773Z,8.28
2019-03-05T08:00:34.826Z,8.36
2019-03-05T08:02:27.815Z,8.87
2019-03-05T08:03:27.865Z,8.67
2019-03-05T08:05:20.846Z,8.33
2019-03-05T08:06:20.899Z,8.20
2019-03-05T08:08:13.881Z,8.33
2019-03-05T08:09:13.928Z,8.16
2019-03-05T08:11:06.908Z,7.90
2019-03-05T08:12:06.960Z,7.75
2019-03-05T08:13:59.939Z,7.72
2019-03-05T08:14:59.993Z,7.72
2019-03-05T08:16:52.975Z,7.67
2019-03-05T08:17:53.029Z,7.58
2019-03-05T08:19:46.028Z,7.51
2019-03-05T08:20:46.084Z,7.47
2019-03-05T08:22:39.072Z,7.51
2019-03-05T08:23:39.117Z,7.63
2019-03-05T08:25:32.093Z,7.63
2019-03-05T08:26:32.149Z,7.51
2019-03-05T08:28:25.143Z,7.45
2019-03-05T08:29:25.180Z,7.39
2019-03-05T08:31:18.158Z,7.29
2019-03-05T08:32:18.216Z,7.28
2019-03-05T08:34:11.195Z,7.15
2019-03-05T08:35:11.244Z,7.15
2019-03-05T08:37:04.228Z,7.24
2019-03-05T08:38:04.277Z,7.28
2019-03-05T08:39:57.254Z,7.29
2019-03-05T08:40:57.308Z,7.31
2019-03-05T08:42:50.299Z,7.29
2019-03-05T08:43:50.349Z,7.11
2019-03-05T08:45:43.331Z,7.29
2019-03-05T08:46:43.380Z,7.25
2019-03-05T08:48:36.367Z,7.32
2019-03-05T08:49:36.416Z,7.40
2019-03-05T08:51:29.414Z,7.63
2019-03-05T08:52:29.496Z,7.73
2019-03-05T08:54:22.451Z,7.70
2019-03-05T08:55:22.508Z,7.66
2019-03-05T08:57:15.486Z,7.70
2019-03-05T08:58:15.535Z,7.66
2019-03-05T09:00:08.529Z,7.66
2019-03-05T09:01:08.560Z,7.69
2019-03-05T09:03:01.552Z,7.50
2019-03-05T09:04:01.600Z,7.53
2019-03-05T09:05:54.582Z,8.56
2019-03-05T09:06:54.637Z,9.56
2019-03-05T09:08:47.622Z,9.22
2019-03-05T09:09:47.666Z,8.82
2019-03-05T09:11:40.650Z,9.54
2019-03-05T09:12:40.710Z,9.76
2019-03-05T09:14:34.585Z,9.22
2019-03-05T09:15:33.734Z,9.06
2019-03-05T09:17:26.721Z,9.03
2019-03-05T09:18:26.770Z,9.25
2019-03-05T09:20:19.747Z,9.54
2019-03-05T09:21:19.811Z,9.23
2019-03-05T09:23:12.789Z,9.11
2019-03-05T09:24:12.855Z,9.04
2019-03-05T09:26:05.824Z,8.84
2019-03-05T09:27:05.882Z,8.85
2019-03-05T09:28:58.870Z,9.47
2019-03-05T09:29:58.917Z,9.32
2019-03-05T09:31:51.910Z,9.02
2019-03-05T09:32:51.952Z,9.14
2019-03-05T09:34:44.937Z,9.19
2019-03-05T09:35:44.978Z,9.08
2019-03-05T09:37:37.992Z,8.81
2019-03-05T09:38:38.047Z,8.82
2019-03-05T09:40:31.025Z,8.74
2019-03-05T09:41:31.079Z,8.79
2019-03-05T09:43:24.059Z,8.84
2019-03-05T09:44:24.110Z,8.58
2019-03-05T09:46:17.099Z,8.19
2019-03-05T09:47:17.148Z,8.30
2019-03-05T09:49:10.144Z,8.28
2019-03-05T09:50:10.193Z,8.16
2019-03-05T09:52:03.174Z,8.00
2019-03-05T09:53:03.229Z,8.00
2019-03-05T09:54:56.217Z,8.00
2019-03-05T09:55:56.267Z,7.88
2019-03-05T09:57:49.255Z,8.03
2019-03-05T09:58:49.301Z,8.09
2019-03-05T10:00:42.279Z,8.26
2019-03-05T10:01:42.331Z,8.34
2019-03-05T10:03:35.325Z,8.31
2019-03-05T10:04:35.386Z,8.34
2019-03-05T10:06:28.349Z,8.31
2019-03-05T10:07:28.404Z,8.30
2019-03-05T10:09:21.405Z,8.37
2019-03-05T10:10:21.452Z,8.26
2019-03-05T10:12:14.427Z,8.27
2019-03-05T10:13:14.482Z,8.24
2019-03-05T10:15:07.463Z,8.41
2019-03-05T10:16:07.514Z,8.55
2019-03-05T10:18:11.787Z,8.58
2019-03-05T10:19:00.543Z,8.63
2019-03-05T10:20:53.525Z,8.71
2019-03-05T10:21:53.576Z,8.79
2019-03-05T10:23:46.565Z,8.87
2019-03-05T10:24:46.611Z,8.88
2019-03-05T10:26:39.587Z,8.73
2019-03-05T10:27:39.645Z,8.53
2019-03-05T10:29:32.634Z,8.52
2019-03-05T10:30:32.686Z,8.37
2019-03-05T10:32:25.668Z,8.34
2019-03-05T10:33:25.717Z,8.41
2019-03-05T10:35:20.639Z,8.48
2019-03-05T10:36:18.751Z,8.44
2019-03-05T10:38:11.735Z,8.44
2019-03-05T10:39:11.784Z,8.34
2019-03-05T10:41:04.778Z,8.51
2019-03-05T10:42:04.832Z,8.61
2019-03-05T10:43:57.817Z,8.56
2019-03-05T10:44:57.863Z,8.63
2019-03-05T10:46:50.841Z,8.58
2019-03-05T10:47:50.899Z,8.76
2019-03-05T10:49:43.885Z,8.82
2019-03-05T10:50:43.937Z,8.85
2019-03-05T10:52:36.915Z,8.97
2019-03-05T10:53:36.967Z,8.81
2019-03-05T10:55:29.956Z,8.94
2019-03-05T10:56:30.006Z,9.10
2019-03-05T10:58:33.196Z,9.14
2019-03-05T10:59:23.051Z,9.16
2019-03-05T11:01:16.537Z,9.19
2019-03-05T11:02:16.590Z,9.26
2019-03-05T11:04:09.577Z,9.41
2019-03-05T11:05:09.625Z,9.56
2019-03-05T11:07:02.602Z,9.86
2019-03-05T11:08:02.666Z,9.95
2019-03-05T11:09:55.664Z,9.98
2019-03-05T11:10:55.698Z,9.95
2019-03-05T11:12:48.673Z,9.77
2019-03-05T11:13:48.726Z,9.62
2019-03-05T11:15:41.712Z,9.61
2019-03-05T11:16:41.776Z,9.73
2019-03-05T11:18:34.746Z,9.82
2019-03-05T11:19:34.795Z,9.73
2019-03-05T11:21:27.784Z,9.72
2019-03-05T11:22:27.846Z,9.66
2019-03-05T11:24:20.822Z,9.87
2019-03-05T11:25:20.874Z,9.84
2019-03-05T11:27:13.849Z,9.97
2019-03-05T11:28:13.907Z,9.99
2019-03-05T11:30:06.894Z,10.15
2019-03-05T11:31:06.944Z,10.13
2019-03-05T11:32:59.932Z,9.95
2019-03-05T11:33:59.987Z,9.73
2019-03-05T11:35:53.038Z,9.74
2019-03-05T11:36:53.030Z,9.79
2019-03-05T11:38:46.181Z,9.80
2019-03-05T11:39:46.070Z,9.86
2019-03-05T11:41:39.067Z,9.69
2019-03-05T11:42:39.113Z,9.69
2019-03-05T11:44:32.619Z,9.72
2019-03-05T11:45:32.150Z,9.69
2019-03-05T11:47:25.149Z,9.69
2019-03-05T11:48:25.209Z,9.80
2019-03-05T11:50:18.191Z,9.99
2019-03-05T11:51:18.241Z,10.09
2019-03-05T11:53:11.220Z,10.34
2019-03-05T11:54:11.278Z,10.38
2019-03-05T11:56:04.267Z,10.53
2019-03-05T11:57:04.318Z,10.48
2019-03-05T11:58:57.305Z,10.48
2019-03-05T11:59:57.349Z,10.54
2019-03-05T12:01:51.832Z,10.71
2019-03-05T12:02:51.888Z,10.74
2019-03-05T12:04:44.874Z,10.96
2019-03-05T12:05:44.922Z,11.12
2019-03-05T12:07:37.899Z,11.17
2019-03-05T12:08:37.959Z,11.23
2019-03-05T12:10:30.943Z,11.32
2019-03-05T12:11:30.998Z,11.22
2019-03-05T12:13:23.973Z,11.04
2019-03-05T12:14:24.031Z,11.04
2019-03-05T12:16:17.036Z,11.23
2019-03-05T12:17:17.088Z,11.25
2019-03-05T12:19:10.069Z,11.11
2019-03-05T12:20:10.126Z,11.15
2019-03-05T12:22:03.107Z,10.99
2019-03-05T12:23:06.735Z,10.90
2019-03-05T12:24:57.686Z,10.72
2019-03-05T12:25:56.214Z,10.76
2019-03-05T12:27:49.181Z,10.78
2019-03-05T12:28:49.239Z,10.92
2019-03-05T12:30:42.226Z,10.99
2019-03-05T12:31:42.278Z,10.99
2019-03-05T12:33:35.255Z,10.82
2019-03-05T12:34:35.314Z,10.82
2019-03-05T12:36:28.298Z,10.82
2019-03-05T12:37:28.349Z,10.67
2019-03-05T12:39:21.335Z,10.81
2019-03-05T12:40:21.390Z,10.89
2019-03-05T12:42:14.366Z,10.90
2019-03-05T12:43:14.424Z,10.68
2019-03-05T12:45:07.409Z,10.61
2019-03-05T12:46:07.460Z,10.64
2019-03-05T12:48:00.442Z,10.54
2019-03-05T12:49:00.497Z,10.56
2019-03-05T12:50:53.485Z,10.57
2019-03-05T12:51:53.534Z,10.57
2019-03-05T12:53:46.515Z,10.57
2019-03-05T12:54:46.571Z,10.75
2019-03-05T12:56:39.561Z,10.78
2019-03-05T12:57:39.607Z,10.68
2019-03-05T12:59:32.590Z,10.64
2019-03-05T13:00:32.648Z,10.63
2019-03-05T13:02:25.643Z,10.61
2019-03-05T13:03:25.697Z,10.67
2019-03-05T13:05:18.682Z,10.68
2019-03-05T13:06:18.734Z,10.76
2019-03-05T13:08:11.721Z,10.97
2019-03-05T13:09:13.573Z,11.22
2019-03-05T13:11:04.773Z,11.55
2019-03-05T13:12:04.816Z,11.78
2019-03-05T13:14:06.219Z,11.84
2019-03-05T13:14:57.857Z,11.91
2019-03-05T13:16:50.842Z,11.65
2019-03-05T13:17:51.589Z,11.45
2019-03-05T13:19:44.437Z,11.36
2019-03-05T13:20:43.942Z,11.35
2019-03-05T13:22:36.932Z,11.30
2019-03-05T13:23:36.971Z,11.27
2019-03-05T13:25:30.032Z,11.40
2019-03-05T13:26:30.008Z,11.44
2019-03-05T13:28:23.008Z,11.41
2019-03-05T13:29:23.056Z,11.44
2019-03-05T13:31:16.061Z,11.63
2019-03-05T13:32:16.794Z,11.72
2019-03-05T13:34:09.070Z,12.02
2019-03-05T13:35:09.128Z,12.17
2019-03-05T13:37:02.118Z,12.15
2019-03-05T13:38:03.272Z,12.20
2019-03-05T13:39:58.141Z,12.18
2019-03-05T13:40:55.207Z,12.02
2019-03-05T13:42:48.186Z,11.77
2019-03-05T13:43:48.246Z,11.65
2019-03-05T13:45:43.777Z,11.54
2019-03-05T13:46:41.297Z,11.52
2019-03-05T13:48:34.279Z,11.59
2019-03-05T13:49:40.618Z,11.52
2019-03-05T13:51:27.341Z,11.68
2019-03-05T13:52:27.393Z,11.78
2019-03-05T13:54:20.378Z,11.95
2019-03-05T13:55:23.465Z,12.12
2019-03-05T13:57:15.318Z,12.32
2019-03-05T13:58:13.468Z,12.21
2019-03-05T14:00:07.388Z,11.83
2019-03-05T14:01:06.509Z,11.70
2019-03-05T14:02:59.503Z,11.69
2019-03-05T14:03:59.559Z,11.59
2019-03-05T14:05:52.547Z,11.50
2019-03-05T14:06:52.601Z,11.41
2019-03-05T14:08:45.583Z,11.27
2019-03-05T14:09:45.662Z,11.12
2019-03-05T14:11:38.639Z,11.08
2019-03-05T14:12:38.673Z,11.23
2019-03-05T14:14:31.658Z,11.08
2019-03-05T14:15:31.708Z,11.08
2019-03-05T14:17:24.711Z,10.99
2019-03-05T14:18:24.755Z,10.89
2019-03-05T14:20:17.752Z,10.75
2019-03-05T14:21:17.799Z,10.64
2019-03-05T14:23:10.772Z,10.56
2019-03-05T14:24:10.835Z,10.48
2019-03-05T14:26:03.825Z,11.19
2019-03-05T14:27:03.869Z,11.75
2019-03-05T14:28:56.848Z,12.58
2019-03-05T14:29:56.894Z,12.40
2019-03-05T14:31:49.890Z,12.18
2019-03-05T14:32:49.951Z,11.87
2019-03-05T14:34:42.916Z,11.43
2019-03-05T14:35:42.975Z,11.66
2019-03-05T14:37:35.966Z,11.55
2019-03-05T14:38:36.101Z,11.65
2019-03-05T14:40:29.030Z,11.41
2019-03-05T14:41:29.082Z,11.41
2019-03-05T14:43:22.068Z,11.41
2019-03-05T14:44:22.098Z,11.27
2019-03-05T14:46:15.121Z,11.19
2019-03-05T14:47:15.139Z,11.25
2019-03-05T14:49:08.143Z,11.26
2019-03-05T14:50:08.212Z,11.23
2019-03-05T14:52:01.205Z,11.07
2019-03-05T14:53:01.239Z,11.04
2019-03-05T14:54:54.256Z,10.97
2019-03-05T14:55:54.648Z,10.94
2019-03-05T14:57:47.317Z,10.93
2019-03-05T14:58:47.382Z,10.99
2019-03-05T15:00:40.323Z,10.89
2019-03-05T15:01:40.471Z,10.90
2019-03-05T15:03:33.420Z,10.96
2019-03-05T15:04:33.471Z,10.97
2019-03-05T15:06:26.429Z,10.92
2019-03-05T15:07:26.523Z,10.89
2019-03-05T15:09:19.494Z,10.89
2019-03-05T15:10:19.516Z,10.82
2019-03-05T15:12:12.522Z,10.72
2019-03-05T15:13:17.304Z,10.75
2019-03-05T15:15:05.581Z,10.84
2019-03-05T15:16:05.615Z,10.86
2019-03-05T15:17:58.646Z,10.99
2019-03-05T15:18:58.683Z,11.11
2019-03-05T15:20:51.661Z,11.14
2019-03-05T15:21:51.734Z,11.23
2019-03-05T15:23:44.701Z,11.18
2019-03-05T15:24:44.751Z,11.33
2019-03-05T15:26:37.777Z,11.27
2019-03-05T15:27:37.785Z,11.17
2019-03-05T15:29:30.766Z,11.18
2019-03-05T15:30:30.888Z,11.17
2019-03-05T15:32:23.826Z,10.93
2019-03-05T15:33:23.897Z,10.94
2019-03-05T15:35:16.841Z,11.00
2019-03-05T15:38:09.892Z,11.00
2019-03-05T15:39:09.932Z,10.99
2019-03-05T15:41:02.928Z,11.04
2019-03-05T15:42:03.003Z,11.14
2019-03-05T15:43:56.002Z,11.25
2019-03-05T15:44:56.026Z,11.29
2019-03-05T15:46:48.994Z,11.26
2019-03-05T15:47:49.069Z,11.29
2019-03-05T15:49:42.060Z,11.30
2019-03-05T15:50:42.192Z,11.14
2019-03-05T15:52:35.103Z,11.17
2019-03-05T15:53:35.182Z,11.11
2019-03-05T15:55:28.091Z,11.12
2019-03-05T15:56:28.151Z,11.23
2019-03-05T15:58:21.156Z,11.18
2019-03-05T15:59:21.225Z,11.36
2019-03-05T16:01:22.067Z,11.27
2019-03-05T16:02:14.729Z,11.10
2019-03-05T16:04:07.719Z,10.97
2019-03-05T16:05:11.939Z,10.96
2019-03-05T16:07:00.750Z,10.75
2019-03-05T16:08:01.294Z,10.75
2019-03-05T16:09:53.792Z,10.60
2019-03-05T16:10:54.641Z,10.60
2019-03-05T16:12:46.836Z,10.61
2019-03-05T16:13:46.886Z,10.54
2019-03-05T16:15:41.817Z,10.46
2019-03-05T16:16:39.919Z,10.46
2019-03-05T16:18:32.905Z,10.35
2019-03-05T16:19:32.956Z,10.41
2019-03-05T16:21:25.933Z,10.46
2019-03-05T16:22:25.995Z,10.42
2019-03-05T16:24:19.001Z,10.40
2019-03-05T16:25:19.050Z,10.41
2019-03-05T16:27:12.039Z,10.30
2019-03-05T16:28:12.088Z,10.28
2019-03-05T16:30:05.063Z,10.22
2019-03-05T16:31:07.685Z,10.28
2019-03-05T16:33:00.034Z,10.16
2019-03-05T16:33:58.160Z,10.16
2019-03-05T16:35:52.298Z,10.16
2019-03-05T16:36:51.192Z,10.22
2019-03-05T16:38:44.183Z,10.20
2019-03-05T16:39:46.310Z,10.09
2019-03-05T16:41:37.218Z,10.12
2019-03-05T16:42:37.275Z,10.01
2019-03-05T16:44:30.257Z,10.02
2019-03-05T16:45:30.308Z,10.02
2019-03-05T16:47:23.295Z,9.95
2019-03-05T16:48:23.345Z,9.94
2019-03-05T16:50:16.327Z,9.84
2019-03-05T16:51:16.382Z,9.87
2019-03-05T16:53:09.368Z,9.82
2019-03-05T16:54:09.417Z,9.73
2019-03-05T16:56:02.415Z,9.69
2019-03-05T16:57:02.459Z,9.64
2019-03-05T16:58:55.444Z,9.58
2019-03-05T16:59:55.494Z,9.62
2019-03-05T17:01:48.980Z,9.41
2019-03-05T17:02:49.034Z,9.55
2019-03-05T17:04:42.049Z,9.48
2019-03-05T17:05:42.071Z,9.48
2019-03-05T17:07:35.160Z,9.37
2019-03-05T17:08:35.128Z,9.34
2019-03-05T17:10:29.971Z,9.31
2019-03-05T17:11:28.164Z,9.37
2019-03-05T17:13:21.154Z,9.28
2019-03-05T17:14:21.197Z,9.22
2019-03-05T17:16:14.288Z,9.23
2019-03-05T17:17:14.239Z,9.23
2019-03-05T17:19:07.229Z,9.19
2019-03-05T17:20:07.314Z,9.25
2019-03-05T17:22:00.293Z,9.19
2019-03-05T17:23:00.307Z,9.23
2019-03-05T17:24:53.289Z,9.18
2019-03-05T17:25:53.342Z,9.16
2019-03-05T17:27:46.322Z,9.08
2019-03-05T17:28:46.371Z,9.04
2019-03-05T17:30:39.367Z,9.03
2019-03-05T17:31:39.421Z,9.02
2019-03-05T17:33:32.410Z,9.00
2019-03-05T17:34:32.449Z,9.03
2019-03-05T17:36:25.431Z,9.04
2019-03-05T17:37:25.489Z,9.06
2019-03-05T17:39:18.486Z,8.88
2019-03-05T17:40:18.520Z,8.88
2019-03-05T17:42:11.501Z,8.94
2019-03-05T17:43:11.561Z,8.82
2019-03-05T17:45:04.541Z,8.78
2019-03-05T17:46:04.589Z,8.73
2019-03-05T17:47:57.572Z,8.60
2019-03-05T17:48:57.622Z,8.56
2019-03-05T17:50:50.597Z,8.53
2019-03-05T17:51:50.656Z,8.61
2019-03-05T17:53:43.634Z,8.55
2019-03-05T17:54:43.686Z,8.52
2019-03-05T17:56:36.665Z,8.48
2019-03-05T17:57:36.723Z,8.52
2019-03-05T17:59:29.713Z,8.53
2019-03-05T18:00:29.755Z,8.49
2019-03-05T18:02:23.242Z,8.38
2019-03-05T18:03:23.297Z,8.41
2019-03-05T18:05:16.275Z,8.30
2019-03-05T18:06:16.326Z,8.36
2019-03-05T18:08:09.321Z,8.37
2019-03-05T18:09:09.366Z,8.33
2019-03-05T18:11:02.354Z,8.31
2019-03-05T18:12:02.409Z,8.27
2019-03-05T18:13:55.386Z,8.26
2019-03-05T18:14:55.434Z,8.30
2019-03-05T18:16:48.435Z,8.20
2019-03-05T18:17:48.481Z,8.19
2019-03-05T18:19:41.461Z,8.15
2019-03-05T18:20:41.511Z,8.16
2019-03-05T18:22:34.527Z,8.26
2019-03-05T18:23:34.556Z,8.18
2019-03-05T18:25:27.538Z,8.12
2019-03-05T18:26:27.585Z,8.15
2019-03-05T18:28:20.570Z,8.08
2019-03-05T18:29:20.619Z,8.08
2019-03-05T18:31:13.596Z,7.98
2019-03-05T18:32:13.651Z,7.98
2019-03-05T18:34:06.640Z,7.88
2019-03-05T18:35:06.688Z,7.83
2019-03-05T18:36:59.669Z,7.87
2019-03-05T18:37:59.735Z,7.69
2019-03-05T18:39:52.729Z,7.79
2019-03-05T18:40:52.757Z,7.69
2019-03-05T18:42:45.736Z,7.60
2019-03-05T18:43:45.789Z,7.54
2019-03-05T18:45:38.782Z,7.45
2019-03-05T18:46:38.827Z,7.47
2019-03-05T18:48:31.816Z,7.40
2019-03-05T18:49:31.863Z,7.31
2019-03-05T18:51:24.840Z,7.24
2019-03-05T18:52:24.898Z,7.23
2019-03-05T18:54:17.899Z,7.17
2019-03-05T18:55:17.947Z,7.17
2019-03-05T18:57:10.922Z,7.02
2019-03-05T18:58:10.978Z,7.06
2019-03-05T19:00:03.975Z,7.02
2019-03-05T19:01:04.038Z,7.02
2019-03-05T19:02:57.011Z,7.06